createdAt,value
2017-11-27T00:00:32.228Z,4.26
2017-11-27T00:01:12.741Z,4.24
2017-11-27T00:01:53.271Z,4.22
2017-11-27T00:02:33.793Z,4.18
2017-11-27T00:03:14.288Z,4.16
2017-11-27T00:03:54.814Z,4.24
2017-11-27T00:04:35.342Z,4.24
2017-11-27T00:05:15.876Z,4.12
2017-11-27T00:05:56.369Z,4.15
2017-11-27T00:06:36.913Z,4.23
2017-11-27T00:07:17.420Z,4.22
2017-11-27T00:07:57.941Z,4.2
2017-11-27T00:08:38.469Z,4.23
2017-11-27T00:09:18.989Z,4.23
2017-11-27T00:09:59.500Z,4.24
2017-11-27T00:10:40.028Z,4.26
2017-11-27T00:11:20.565Z,4.2
2017-11-27T00:12:01.068Z,4.24
2017-11-27T00:12:41.599Z,4.24
2017-11-27T00:13:22.118Z,4.22
2017-11-27T00:14:02.647Z,4.16
2017-11-27T00:14:43.149Z,4.26
2017-11-27T00:15:23.672Z,4.29
2017-11-27T00:16:04.196Z,4.3
2017-11-27T00:16:44.711Z,4.36
2017-11-27T00:17:25.242Z,4.36
2017-11-27T00:18:05.769Z,4.36
2017-11-27T00:18:46.296Z,4.36
2017-11-27T00:19:26.813Z,4.34
2017-11-27T00:20:07.304Z,4.34
2017-11-27T00:20:47.829Z,4.32
2017-11-27T00:21:28.345Z,4.32
2017-11-27T00:22:08.870Z,4.41
2017-11-27T00:22:49.383Z,4.34
2017-11-27T00:23:29.912Z,4.33
2017-11-27T00:24:10.434Z,4.4
2017-11-27T00:24:50.951Z,4.34
2017-11-27T00:25:31.490Z,4.18
2017-11-27T00:26:12.008Z,4.3
2017-11-27T00:26:52.543Z,4.24
2017-11-27T00:27:33.072Z,4.27
2017-11-27T00:28:13.579Z,4.22
2017-11-27T00:28:54.104Z,4.24
2017-11-27T00:29:34.724Z,4.22
2017-11-27T00:30:15.225Z,4.26
2017-11-27T00:30:55.758Z,4.24
2017-11-27T00:31:36.284Z,4.23
2017-11-27T00:32:16.819Z,4.16
2017-11-27T00:32:57.330Z,4.24
2017-11-27T00:33:37.847Z,4.2
2017-11-27T00:34:18.339Z,4.24
2017-11-27T00:34:58.846Z,4.22
2017-11-27T00:35:39.387Z,4.26
2017-11-27T00:36:19.930Z,4.23
2017-11-27T00:37:00.452Z,4.26
2017-11-27T00:37:40.976Z,4.22
2017-11-27T00:38:21.497Z,4.22
2017-11-27T00:39:02.015Z,4.26
2017-11-27T00:39:42.567Z,4.24
2017-11-27T00:40:23.079Z,4.29
2017-11-27T00:41:03.576Z,4.24
2017-11-27T00:41:44.110Z,4.26
2017-11-27T00:42:24.617Z,4.24
2017-11-27T00:43:05.151Z,4.22
2017-11-27T00:43:45.680Z,4.22
2017-11-27T00:44:26.233Z,4.22
2017-11-27T00:45:06.720Z,4.23
2017-11-27T00:45:47.250Z,4.2
2017-11-27T00:46:27.783Z,4.22
2017-11-27T00:47:08.306Z,4.2
2017-11-27T00:47:48.827Z,4.22
2017-11-27T00:48:29.352Z,4.27
2017-11-27T00:49:09.893Z,4.24
2017-11-27T00:49:50.417Z,4.26
2017-11-27T00:50:30.940Z,4.22
2017-11-27T00:51:11.458Z,4.24
2017-11-27T00:51:52.002Z,4.24
2017-11-27T00:52:32.501Z,4.24
2017-11-27T00:53:13.057Z,4.22
2017-11-27T00:53:53.556Z,4.24
2017-11-27T00:54:34.070Z,4.3
2017-11-27T00:55:14.649Z,4.3
2017-11-27T00:55:55.184Z,4.24
2017-11-27T00:56:35.786Z,4.26
2017-11-27T00:57:16.315Z,4.27
2017-11-27T00:57:56.841Z,4.16
2017-11-27T00:58:37.364Z,4.26
2017-11-27T00:59:17.894Z,4.22
2017-11-27T00:59:58.387Z,4.2
2017-11-27T01:00:38.891Z,4.24
2017-11-27T01:01:19.398Z,4.22
2017-11-27T01:01:59.924Z,4.24
2017-11-27T01:02:40.439Z,4.24
2017-11-27T01:03:20.961Z,4.27
2017-11-27T01:04:01.496Z,4.23
2017-11-27T01:04:42.015Z,4.27
2017-11-27T01:05:22.545Z,4.27
2017-11-27T01:06:03.053Z,4.24
2017-11-27T01:06:43.589Z,4.24
2017-11-27T01:07:24.118Z,4.27
2017-11-27T01:08:04.629Z,4.22
2017-11-27T01:08:45.161Z,4.29
2017-11-27T01:09:25.675Z,4.27
2017-11-27T01:10:06.226Z,4.36
2017-11-27T01:10:46.750Z,4.4
2017-11-27T01:11:27.264Z,4.34
2017-11-27T01:12:07.782Z,4.36
2017-11-27T01:12:48.315Z,4.33
2017-11-27T01:13:28.832Z,4.32
2017-11-27T01:14:09.367Z,4.33
2017-11-27T01:14:49.894Z,4.36
2017-11-27T01:15:30.405Z,4.4
2017-11-27T01:16:10.936Z,4.37
2017-11-27T01:16:51.468Z,4.36
2017-11-27T01:17:31.977Z,4.4
2017-11-27T01:18:12.508Z,4.34
2017-11-27T01:18:53.045Z,4.44
2017-11-27T01:19:33.569Z,4.44
2017-11-27T01:20:14.105Z,4.42
2017-11-27T01:20:54.634Z,4.41
2017-11-27T01:21:35.146Z,4.44
2017-11-27T01:22:15.661Z,4.37
2017-11-27T01:22:56.182Z,4.45
2017-11-27T01:23:36.708Z,4.4
2017-11-27T01:24:17.228Z,4.34
2017-11-27T01:24:57.756Z,4.44
2017-11-27T01:25:38.277Z,4.44
2017-11-27T01:26:18.810Z,4.4
2017-11-27T01:26:59.324Z,4.44
2017-11-27T01:27:39.852Z,4.42
2017-11-27T01:28:20.376Z,4.4
2017-11-27T01:29:00.900Z,4.45
2017-11-27T01:29:41.410Z,4.45
2017-11-27T01:30:21.928Z,4.47
2017-11-27T01:31:02.457Z,4.36
2017-11-27T01:31:42.984Z,4.36
2017-11-27T01:32:23.521Z,4.42
2017-11-27T01:33:04.022Z,4.42
2017-11-27T01:33:44.563Z,4.42
2017-11-27T01:34:25.088Z,4.4
2017-11-27T01:35:05.608Z,4.42
2017-11-27T01:35:46.137Z,4.45
2017-11-27T01:36:26.654Z,4.33
2017-11-27T01:37:07.202Z,4.36
2017-11-27T01:37:47.713Z,4.42
2017-11-27T01:38:28.247Z,4.36
2017-11-27T01:39:08.768Z,4.41
2017-11-27T01:39:49.292Z,4.44
2017-11-27T01:40:29.824Z,4.47
2017-11-27T01:41:10.349Z,4.5
2017-11-27T01:41:50.879Z,4.5
2017-11-27T01:42:31.397Z,4.48
2017-11-27T01:43:11.940Z,4.5
2017-11-27T01:43:52.459Z,4.45
2017-11-27T01:44:32.985Z,4.5
2017-11-27T01:45:13.512Z,4.51
2017-11-27T01:45:54.040Z,4.44
2017-11-27T01:46:34.585Z,4.5
2017-11-27T01:47:15.123Z,4.51
2017-11-27T01:47:55.642Z,4.47
2017-11-27T01:48:36.158Z,4.51
2017-11-27T01:49:16.679Z,4.47
2017-11-27T01:49:57.188Z,4.5
2017-11-27T01:50:37.715Z,4.47
2017-11-27T01:51:18.236Z,4.52
2017-11-27T01:51:58.757Z,4.44
2017-11-27T01:52:39.261Z,4.5
2017-11-27T01:53:19.801Z,4.42
2017-11-27T01:54:00.328Z,4.45
2017-11-27T01:54:40.849Z,4.48
2017-11-27T01:55:21.361Z,4.5
2017-11-27T01:56:01.894Z,4.51
2017-11-27T01:56:42.430Z,4.55
2017-11-27T01:57:22.944Z,4.55
2017-11-27T01:58:03.472Z,4.55
2017-11-27T01:58:43.982Z,4.58
2017-11-27T01:59:24.508Z,4.59
2017-11-27T02:00:05.038Z,4.44
2017-11-27T02:00:45.584Z,4.48
2017-11-27T02:01:26.086Z,4.5
2017-11-27T02:02:06.607Z,4.47
2017-11-27T02:02:47.130Z,4.54
2017-11-27T02:03:27.635Z,4.47
2017-11-27T02:04:08.154Z,4.5
2017-11-27T02:04:48.663Z,4.47
2017-11-27T02:05:29.174Z,4.45
2017-11-27T02:06:09.706Z,4.55
2017-11-27T02:06:50.198Z,4.52
2017-11-27T02:07:30.748Z,4.5
2017-11-27T02:08:11.393Z,4.47
2017-11-27T02:08:51.920Z,4.55
2017-11-27T02:09:32.457Z,4.48
2017-11-27T02:10:12.967Z,4.6
2017-11-27T02:10:53.488Z,4.44
2017-11-27T02:11:34.008Z,4.48
2017-11-27T02:12:14.518Z,4.48
2017-11-27T02:12:55.029Z,4.52
2017-11-27T02:13:35.562Z,4.47
2017-11-27T02:14:16.095Z,4.44
2017-11-27T02:14:56.605Z,4.54
2017-11-27T02:15:37.127Z,4.51
2017-11-27T02:16:17.659Z,4.54
2017-11-27T02:16:58.173Z,4.5
2017-11-27T02:17:38.713Z,4.54
2017-11-27T02:18:19.242Z,4.52
2017-11-27T02:18:59.766Z,4.6
2017-11-27T02:19:40.286Z,4.6
2017-11-27T02:20:20.813Z,4.63
2017-11-27T02:21:01.326Z,4.6
2017-11-27T02:21:41.838Z,4.62
2017-11-27T02:22:22.343Z,4.65
2017-11-27T02:23:02.860Z,4.63
2017-11-27T02:23:43.368Z,4.63
2017-11-27T02:24:23.900Z,4.65
2017-11-27T02:25:04.427Z,4.66
2017-11-27T02:25:44.972Z,4.66
2017-11-27T02:26:25.476Z,4.63
2017-11-27T02:27:05.984Z,4.65
2017-11-27T02:27:46.495Z,4.69
2017-11-27T02:28:27.017Z,4.66
2017-11-27T02:29:07.547Z,4.62
2017-11-27T02:29:48.078Z,4.67
2017-11-27T02:30:28.574Z,4.69
2017-11-27T02:31:09.119Z,4.72
2017-11-27T02:31:49.648Z,4.67
2017-11-27T02:32:30.167Z,4.69
2017-11-27T02:33:10.687Z,4.7
2017-11-27T02:33:51.216Z,4.72
2017-11-27T02:34:31.719Z,4.69
2017-11-27T02:35:12.238Z,4.67
2017-11-27T02:35:52.752Z,4.69
2017-11-27T02:36:33.256Z,4.67
2017-11-27T02:37:13.781Z,4.67
2017-11-27T02:37:54.299Z,4.67
2017-11-27T02:38:34.828Z,4.7
2017-11-27T02:39:15.354Z,4.75
2017-11-27T02:39:55.891Z,4.63
2017-11-27T02:40:36.387Z,4.66
2017-11-27T02:41:16.909Z,4.7
2017-11-27T02:41:57.424Z,4.7
2017-11-27T02:42:37.949Z,4.75
2017-11-27T02:43:18.476Z,4.69
2017-11-27T02:43:58.990Z,4.69
2017-11-27T02:44:39.501Z,4.72
2017-11-27T02:45:20.033Z,4.73
2017-11-27T02:46:00.551Z,4.72
2017-11-27T02:46:41.084Z,4.73
2017-11-27T02:47:21.610Z,4.72
2017-11-27T02:48:02.137Z,4.77
2017-11-27T02:48:42.670Z,4.77
2017-11-27T02:49:23.190Z,4.77
2017-11-27T02:50:03.722Z,4.82
2017-11-27T02:50:44.250Z,4.8
2017-11-27T02:51:24.783Z,4.8
2017-11-27T02:52:05.309Z,4.69
2017-11-27T02:52:45.831Z,4.85
2017-11-27T02:53:26.344Z,4.85
2017-11-27T02:54:06.890Z,4.82
2017-11-27T02:54:47.532Z,4.84
2017-11-27T02:55:28.036Z,4.8
2017-11-27T02:56:08.556Z,4.82
2017-11-27T02:56:49.094Z,4.7
2017-11-27T02:57:29.634Z,4.8
2017-11-27T02:58:10.138Z,4.7
2017-11-27T02:58:50.661Z,4.84
2017-11-27T02:59:31.196Z,4.82
2017-11-27T03:00:11.720Z,4.8
2017-11-27T03:00:52.231Z,4.82
2017-11-27T03:01:32.760Z,4.86
2017-11-27T03:02:13.281Z,4.78
2017-11-27T03:02:53.794Z,4.77
2017-11-27T03:03:34.314Z,4.78
2017-11-27T03:04:14.839Z,4.75
2017-11-27T03:04:55.375Z,4.73
2017-11-27T03:05:35.889Z,4.8
2017-11-27T03:06:16.418Z,4.84
2017-11-27T03:06:56.943Z,4.82
2017-11-27T03:07:37.460Z,4.84
2017-11-27T03:08:17.980Z,4.8
2017-11-27T03:08:58.491Z,4.75
2017-11-27T03:09:39.002Z,4.78
2017-11-27T03:10:19.521Z,4.8
2017-11-27T03:11:00.038Z,4.77
2017-11-27T03:11:40.561Z,4.8
2017-11-27T03:12:21.066Z,4.8
2017-11-27T03:13:01.590Z,4.78
2017-11-27T03:13:42.104Z,4.75
2017-11-27T03:14:22.632Z,4.8
2017-11-27T03:15:03.141Z,4.77
2017-11-27T03:15:43.652Z,4.86
2017-11-27T03:16:24.185Z,4.78
2017-11-27T03:17:04.718Z,4.78
2017-11-27T03:17:45.241Z,4.84
2017-11-27T03:18:25.962Z,4.69
2017-11-27T03:19:06.475Z,4.8
2017-11-27T03:19:47.008Z,4.84
2017-11-27T03:20:27.547Z,4.78
2017-11-27T03:21:08.091Z,4.72
2017-11-27T03:21:48.623Z,4.73
2017-11-27T03:22:29.140Z,4.77
2017-11-27T03:23:09.661Z,4.69
2017-11-27T03:23:50.198Z,4.72
2017-11-27T03:24:30.705Z,4.65
2017-11-27T03:25:11.234Z,4.67
2017-11-27T03:25:51.764Z,4.65
2017-11-27T03:26:32.284Z,4.72
2017-11-27T03:27:12.815Z,4.72
2017-11-27T03:27:53.335Z,4.65
2017-11-27T03:28:33.920Z,4.72
2017-11-27T03:29:14.389Z,4.7
2017-11-27T03:29:54.933Z,4.73
2017-11-27T03:30:35.453Z,4.69
2017-11-27T03:31:15.960Z,4.66
2017-11-27T03:31:56.454Z,4.72
2017-11-27T03:32:36.986Z,4.66
2017-11-27T03:33:17.505Z,4.67
2017-11-27T03:33:58.016Z,4.67
2017-11-27T03:34:38.545Z,4.7
2017-11-27T03:35:19.075Z,4.72
2017-11-27T03:35:59.612Z,4.69
2017-11-27T03:36:40.129Z,4.72
2017-11-27T03:37:20.627Z,4.75
2017-11-27T03:38:01.161Z,4.72
2017-11-27T03:38:41.655Z,4.7
2017-11-27T03:39:22.178Z,4.69
2017-11-27T03:40:02.690Z,4.72
2017-11-27T03:40:43.220Z,4.72
2017-11-27T03:41:23.743Z,4.67
2017-11-27T03:42:04.257Z,4.7
2017-11-27T03:42:44.869Z,4.73
2017-11-27T03:43:25.385Z,4.8
2017-11-27T03:44:05.917Z,4.66
2017-11-27T03:44:46.445Z,4.72
2017-11-27T03:45:26.978Z,4.72
2017-11-27T03:46:07.488Z,4.77
2017-11-27T03:46:48.063Z,4.7
2017-11-27T03:47:28.588Z,4.66
2017-11-27T03:48:09.104Z,4.65
2017-11-27T03:48:49.611Z,4.7
2017-11-27T03:49:30.121Z,4.67
2017-11-27T03:50:10.655Z,4.7
2017-11-27T03:50:51.165Z,4.69
2017-11-27T03:51:31.690Z,4.7
2017-11-27T03:52:12.200Z,4.67
2017-11-27T03:52:52.714Z,4.69
2017-11-27T03:53:33.254Z,4.69
2017-11-27T03:54:13.743Z,4.7
2017-11-27T03:54:54.289Z,4.67
2017-11-27T03:55:34.804Z,4.67
2017-11-27T03:56:15.331Z,4.69
2017-11-27T03:56:55.855Z,4.59
2017-11-27T03:57:36.385Z,4.62
2017-11-27T03:58:16.901Z,4.67
2017-11-27T03:58:57.416Z,4.69
2017-11-27T03:59:37.948Z,4.55
2017-11-27T04:00:18.464Z,4.62
2017-11-27T04:00:58.963Z,4.51
2017-11-27T04:01:39.460Z,4.55
2017-11-27T04:02:19.987Z,4.63
2017-11-27T04:03:00.518Z,4.6
2017-11-27T04:03:41.031Z,4.58
2017-11-27T04:04:21.567Z,4.5
2017-11-27T04:05:02.087Z,4.52
2017-11-27T04:05:42.609Z,4.54
2017-11-27T04:06:23.128Z,4.48
2017-11-27T04:07:03.664Z,4.51
2017-11-27T04:07:44.157Z,4.54
2017-11-27T04:08:24.669Z,4.5
2017-11-27T04:09:05.180Z,4.5
2017-11-27T04:09:45.708Z,4.45
2017-11-27T04:10:26.222Z,4.5
2017-11-27T04:11:06.743Z,4.5
2017-11-27T04:11:47.280Z,4.44
2017-11-27T04:12:27.797Z,4.45
2017-11-27T04:13:08.377Z,4.52
2017-11-27T04:13:48.869Z,4.54
2017-11-27T04:14:29.396Z,4.5
2017-11-27T04:15:09.916Z,4.41
2017-11-27T04:15:50.458Z,4.5
2017-11-27T04:16:30.944Z,4.48
2017-11-27T04:17:11.467Z,4.47
2017-11-27T04:17:52.003Z,4.5
2017-11-27T04:18:32.510Z,4.47
2017-11-27T04:19:13.037Z,4.44
2017-11-27T04:19:53.580Z,4.5
2017-11-27T04:20:34.068Z,4.33
2017-11-27T04:21:14.590Z,4.41
2017-11-27T04:21:55.104Z,4.47
2017-11-27T04:22:35.621Z,4.4
2017-11-27T04:23:16.140Z,4.37
2017-11-27T04:23:56.649Z,4.42
2017-11-27T04:24:37.166Z,4.34
2017-11-27T04:25:17.696Z,4.41
2017-11-27T04:25:58.211Z,4.44
2017-11-27T04:26:38.719Z,4.4
2017-11-27T04:27:19.230Z,4.4
2017-11-27T04:28:01.704Z,4.4
2017-11-27T04:28:42.225Z,4.36
2017-11-27T04:29:22.749Z,4.4
2017-11-27T04:30:03.269Z,4.32
2017-11-27T04:30:43.767Z,4.4
2017-11-27T04:31:24.293Z,4.37
2017-11-27T04:32:04.808Z,4.47
2017-11-27T04:32:45.326Z,4.41
2017-11-27T04:33:25.841Z,4.45
2017-11-27T04:34:06.367Z,4.36
2017-11-27T04:34:46.892Z,4.41
2017-11-27T04:35:27.409Z,4.45
2017-11-27T04:36:07.921Z,4.33
2017-11-27T04:36:48.462Z,4.41
2017-11-27T04:37:28.998Z,4.41
2017-11-27T04:38:09.526Z,4.45
2017-11-27T04:38:50.039Z,4.36
2017-11-27T04:39:30.582Z,4.44
2017-11-27T04:40:11.101Z,4.34
2017-11-27T04:40:51.613Z,4.34
2017-11-27T04:41:32.140Z,4.41
2017-11-27T04:42:12.674Z,4.36
2017-11-27T04:42:53.222Z,4.45
2017-11-27T04:43:33.743Z,4.36
2017-11-27T04:44:14.272Z,4.36
2017-11-27T04:44:54.793Z,4.36
2017-11-27T04:45:35.299Z,4.4
2017-11-27T04:46:15.825Z,4.44
2017-11-27T04:46:56.344Z,4.45
2017-11-27T04:47:36.863Z,4.41
2017-11-27T04:48:17.387Z,4.45
2017-11-27T04:48:57.924Z,4.45
2017-11-27T04:49:38.437Z,4.42
2017-11-27T04:50:18.963Z,4.37
2017-11-27T04:50:59.497Z,4.4
2017-11-27T04:51:40.013Z,4.44
2017-11-27T04:52:20.535Z,4.42
2017-11-27T04:53:01.080Z,4.4
2017-11-27T04:53:41.615Z,4.33
2017-11-27T04:54:22.140Z,4.41
2017-11-27T04:55:02.654Z,4.36
2017-11-27T04:55:43.180Z,4.4
2017-11-27T04:56:23.714Z,4.41
2017-11-27T04:57:04.252Z,4.41
2017-11-27T04:57:44.759Z,4.41
2017-11-27T04:58:25.286Z,4.42
2017-11-27T04:59:05.985Z,4.42
2017-11-27T04:59:46.510Z,4.37
2017-11-27T05:00:27.039Z,4.41
2017-11-27T05:01:07.561Z,4.41
2017-11-27T05:01:48.101Z,4.42
2017-11-27T05:02:28.652Z,4.4
2017-11-27T05:03:09.146Z,4.42
2017-11-27T05:03:49.685Z,4.41
2017-11-27T05:04:30.284Z,4.44
2017-11-27T05:05:10.781Z,4.44
2017-11-27T05:05:51.305Z,4.36
2017-11-27T05:06:31.834Z,4.5
2017-11-27T05:07:12.340Z,4.44
2017-11-27T05:07:52.839Z,4.42
2017-11-27T05:08:33.381Z,4.42
2017-11-27T05:09:13.891Z,4.4
2017-11-27T05:09:54.400Z,4.42
2017-11-27T05:10:34.926Z,4.44
2017-11-27T05:11:15.454Z,4.45
2017-11-27T05:11:55.988Z,4.54
2017-11-27T05:12:36.503Z,4.51
2017-11-27T05:13:17.018Z,4.5
2017-11-27T05:13:57.550Z,4.51
2017-11-27T05:14:38.073Z,4.51
2017-11-27T05:15:18.583Z,4.51
2017-11-27T05:15:59.109Z,4.48
2017-11-27T05:16:39.622Z,4.55
2017-11-27T05:17:20.157Z,4.51
2017-11-27T05:18:00.694Z,4.5
2017-11-27T05:18:41.204Z,4.51
2017-11-27T05:19:21.725Z,4.63
2017-11-27T05:20:02.250Z,4.52
2017-11-27T05:20:42.772Z,4.55
2017-11-27T05:21:23.281Z,4.66
2017-11-27T05:22:03.806Z,4.55
2017-11-27T05:22:44.329Z,4.72
2017-11-27T05:23:24.830Z,4.62
2017-11-27T05:24:05.339Z,4.63
2017-11-27T05:24:45.867Z,4.67
2017-11-27T05:25:26.392Z,4.63
2017-11-27T05:26:06.965Z,4.7
2017-11-27T05:26:47.618Z,4.66
2017-11-27T05:27:28.143Z,4.62
2017-11-27T05:28:08.654Z,4.52
2017-11-27T05:28:49.160Z,4.6
2017-11-27T05:29:29.693Z,4.66
2017-11-27T05:30:10.198Z,4.63
2017-11-27T05:30:50.696Z,4.55
2017-11-27T05:31:31.215Z,4.65
2017-11-27T05:32:11.732Z,4.7
2017-11-27T05:32:52.258Z,4.67
2017-11-27T05:33:32.778Z,4.65
2017-11-27T05:34:13.313Z,4.59
2017-11-27T05:34:53.822Z,4.55
2017-11-27T05:35:34.351Z,4.55
2017-11-27T05:36:14.884Z,4.52
2017-11-27T05:36:55.421Z,4.63
2017-11-27T05:37:35.951Z,4.65
2017-11-27T05:38:16.465Z,4.67
2017-11-27T05:38:56.991Z,4.69
2017-11-27T05:39:37.518Z,4.65
2017-11-27T05:40:18.037Z,4.69
2017-11-27T05:40:58.562Z,4.65
2017-11-27T05:41:39.111Z,4.69
2017-11-27T05:42:19.646Z,4.65
2017-11-27T05:43:00.153Z,4.66
2017-11-27T05:43:40.664Z,4.69
2017-11-27T05:44:21.203Z,4.67
2017-11-27T05:45:01.723Z,4.7
2017-11-27T05:45:42.238Z,4.67
2017-11-27T05:46:22.803Z,4.7
2017-11-27T05:47:03.304Z,4.73
2017-11-27T05:47:43.831Z,4.75
2017-11-27T05:48:24.350Z,4.67
2017-11-27T05:49:04.881Z,4.75
2017-11-27T05:49:45.416Z,4.67
2017-11-27T05:50:25.980Z,4.69
2017-11-27T05:51:06.507Z,4.72
2017-11-27T05:51:47.009Z,4.72
2017-11-27T05:52:27.534Z,4.77
2017-11-27T05:53:08.058Z,4.75
2017-11-27T05:53:48.583Z,4.84
2017-11-27T05:54:29.101Z,4.77
2017-11-27T05:55:09.633Z,4.77
2017-11-27T05:55:50.157Z,4.73
2017-11-27T05:56:30.684Z,4.82
2017-11-27T05:57:11.195Z,4.69
2017-11-27T05:57:51.730Z,4.75
2017-11-27T05:58:32.275Z,4.8
2017-11-27T05:59:12.794Z,4.78
2017-11-27T05:59:53.313Z,4.78
2017-11-27T06:00:33.832Z,4.89
2017-11-27T06:01:14.373Z,4.84
2017-11-27T06:01:54.895Z,4.84
2017-11-27T06:02:35.441Z,4.85
2017-11-27T06:03:15.964Z,4.86
2017-11-27T06:03:56.493Z,4.84
2017-11-27T06:04:37.027Z,4.86
2017-11-27T06:05:17.571Z,4.89
2017-11-27T06:05:58.083Z,4.96
2017-11-27T06:06:38.598Z,4.91
2017-11-27T06:07:19.113Z,4.84
2017-11-27T06:07:59.624Z,4.89
2017-11-27T06:08:40.145Z,4.91
2017-11-27T06:09:20.666Z,4.91
2017-11-27T06:10:01.192Z,4.92
2017-11-27T06:10:41.723Z,4.84
2017-11-27T06:11:22.268Z,4.89
2017-11-27T06:12:02.767Z,4.89
2017-11-27T06:12:43.288Z,4.92
2017-11-27T06:13:23.786Z,4.91
2017-11-27T06:14:04.311Z,4.96
2017-11-27T06:14:44.917Z,4.96
2017-11-27T06:15:25.446Z,4.91
2017-11-27T06:16:05.956Z,4.97
2017-11-27T06:16:46.491Z,5.03
2017-11-27T06:17:27.007Z,4.94
2017-11-27T06:18:07.541Z,4.91
2017-11-27T06:18:48.078Z,4.99
2017-11-27T06:19:28.629Z,5
2017-11-27T06:20:09.131Z,4.91
2017-11-27T06:20:49.657Z,4.99
2017-11-27T06:21:30.149Z,4.91
2017-11-27T06:22:10.655Z,4.97
2017-11-27T06:22:51.182Z,4.92
2017-11-27T06:23:31.704Z,5.03
2017-11-27T06:24:12.194Z,5.1
2017-11-27T06:24:52.722Z,5.04
2017-11-27T06:25:33.244Z,5.09
2017-11-27T06:26:13.771Z,5.12
2017-11-27T06:26:54.278Z,5.07
2017-11-27T06:27:34.820Z,5.09
2017-11-27T06:28:15.336Z,5.12
2017-11-27T06:28:55.858Z,5.07
2017-11-27T06:29:36.384Z,5.1
2017-11-27T06:30:16.922Z,5.04
2017-11-27T06:30:57.442Z,5.17
2017-11-27T06:31:37.960Z,5.07
2017-11-27T06:32:18.507Z,5.13
2017-11-27T06:32:58.976Z,5.13
2017-11-27T06:33:39.501Z,5.2
2017-11-27T06:34:20.016Z,5.2
2017-11-27T06:35:00.561Z,5.1
2017-11-27T06:35:41.258Z,5.18
2017-11-27T06:36:21.788Z,5.17
2017-11-27T06:37:02.296Z,5.18
2017-11-27T06:37:42.811Z,5.09
2017-11-27T06:38:23.377Z,5.13
2017-11-27T06:39:03.885Z,5.13
2017-11-27T06:39:44.402Z,5.2
2017-11-27T06:40:24.938Z,5.22
2017-11-27T06:41:05.454Z,5.13
2017-11-27T06:41:45.968Z,5.2
2017-11-27T06:42:26.491Z,5.21
2017-11-27T06:43:07.002Z,5.15
2017-11-27T06:43:47.514Z,5.13
2017-11-27T06:44:28.042Z,5.15
2017-11-27T06:45:08.557Z,5.28
2017-11-27T06:45:49.064Z,5.22
2017-11-27T06:46:29.586Z,5.24
2017-11-27T06:47:10.126Z,5.21
2017-11-27T06:47:50.659Z,5.22
2017-11-27T06:48:31.240Z,5.24
2017-11-27T06:49:11.785Z,5.15
2017-11-27T06:49:52.271Z,5.28
2017-11-27T06:50:32.785Z,5.21
2017-11-27T06:51:13.312Z,5.28
2017-11-27T06:51:53.812Z,5.28
2017-11-27T06:52:34.327Z,5.28
2017-11-27T06:53:14.866Z,5.33
2017-11-27T06:53:55.386Z,5.39
2017-11-27T06:54:35.920Z,5.36
2017-11-27T06:55:16.439Z,5.25
2017-11-27T06:55:56.960Z,5.31
2017-11-27T06:56:37.487Z,5.35
2017-11-27T06:57:18.027Z,5.38
2017-11-27T06:57:58.519Z,5.35
2017-11-27T06:58:39.046Z,5.35
2017-11-27T06:59:19.595Z,5.4
2017-11-27T07:00:00.107Z,5.38
2017-11-27T07:00:40.612Z,5.38
2017-11-27T07:01:21.196Z,5.4
2017-11-27T07:02:01.719Z,5.39
2017-11-27T07:02:42.291Z,5.35
2017-11-27T07:03:22.822Z,5.33
2017-11-27T07:04:03.428Z,5.35
2017-11-27T07:04:43.956Z,5.38
2017-11-27T07:05:24.492Z,5.45
2017-11-27T07:06:05.036Z,5.36
2017-11-27T07:06:45.535Z,5.42
2017-11-27T07:07:26.043Z,5.39
2017-11-27T07:08:06.567Z,5.36
2017-11-27T07:08:47.085Z,5.39
2017-11-27T07:09:27.619Z,5.42
2017-11-27T07:10:08.142Z,5.46
2017-11-27T07:10:48.660Z,5.48
2017-11-27T07:11:29.170Z,5.43
2017-11-27T07:12:09.687Z,5.39
2017-11-27T07:12:50.235Z,5.43
2017-11-27T07:13:30.758Z,5.45
2017-11-27T07:14:11.277Z,5.45
2017-11-27T07:14:51.792Z,5.39
2017-11-27T07:15:32.319Z,5.4
2017-11-27T07:16:12.821Z,5.46
2017-11-27T07:16:53.344Z,5.45
2017-11-27T07:17:33.855Z,5.43
2017-11-27T07:18:14.386Z,5.46
2017-11-27T07:18:54.897Z,5.39
2017-11-27T07:19:35.425Z,5.4
2017-11-27T07:20:15.944Z,5.4
2017-11-27T07:20:56.451Z,5.35
2017-11-27T07:21:36.986Z,5.4
2017-11-27T07:22:17.502Z,5.35
2017-11-27T07:22:58.033Z,5.33
2017-11-27T07:23:38.553Z,5.28
2017-11-27T07:24:19.064Z,5.2
2017-11-27T07:24:59.586Z,5.15
2017-11-27T07:25:40.126Z,5.12
2017-11-27T07:26:20.661Z,5.07
2017-11-27T07:27:01.172Z,5.06
2017-11-27T07:27:41.690Z,4.97
2017-11-27T07:28:22.228Z,4.96
2017-11-27T07:29:04.727Z,4.99
2017-11-27T07:29:45.254Z,4.85
2017-11-27T07:30:25.773Z,4.91
2017-11-27T07:31:06.300Z,4.88
2017-11-27T07:31:46.829Z,4.86
2017-11-27T07:32:27.361Z,4.8
2017-11-27T07:33:07.875Z,4.73
2017-11-27T07:33:48.398Z,4.8
2017-11-27T07:34:28.923Z,4.75
2017-11-27T07:35:09.426Z,4.7
2017-11-27T07:35:49.962Z,4.78
2017-11-27T07:36:30.496Z,4.7
2017-11-27T07:37:11.087Z,4.67
2017-11-27T07:37:51.615Z,4.67
2017-11-27T07:38:32.143Z,4.67
2017-11-27T07:39:12.656Z,4.67
2017-11-27T07:39:53.176Z,4.6
2017-11-27T07:40:33.680Z,4.66
2017-11-27T07:41:14.199Z,4.66
2017-11-27T07:41:54.726Z,4.66
2017-11-27T07:42:35.247Z,4.67
2017-11-27T07:43:15.765Z,4.69
2017-11-27T07:43:56.279Z,4.67
2017-11-27T07:44:36.818Z,4.65
2017-11-27T07:45:17.344Z,4.67
2017-11-27T07:45:57.859Z,4.66
2017-11-27T07:46:38.398Z,4.66
2017-11-27T07:47:18.919Z,4.7
2017-11-27T07:47:59.459Z,4.66
2017-11-27T07:48:39.986Z,4.67
2017-11-27T07:49:20.512Z,4.72
2017-11-27T07:50:01.034Z,4.67
2017-11-27T07:50:41.551Z,4.7
2017-11-27T07:51:22.082Z,4.66
2017-11-27T07:52:02.585Z,4.66
2017-11-27T07:52:43.133Z,4.7
2017-11-27T07:53:23.661Z,4.73
2017-11-27T07:54:04.190Z,4.67
2017-11-27T07:54:44.716Z,4.69
2017-11-27T07:55:25.239Z,4.69
2017-11-27T07:56:05.753Z,4.69
2017-11-27T07:56:46.276Z,4.7
2017-11-27T07:57:26.792Z,4.82
2017-11-27T07:58:07.324Z,4.82
2017-11-27T07:58:47.864Z,4.72
2017-11-27T07:59:28.393Z,4.75
2017-11-27T08:00:08.924Z,4.73
2017-11-27T08:00:49.446Z,4.82
2017-11-27T08:01:29.960Z,4.78
2017-11-27T08:02:10.467Z,4.82
2017-11-27T08:02:50.987Z,4.8
2017-11-27T08:03:31.506Z,4.82
2017-11-27T08:04:12.031Z,4.82
2017-11-27T08:04:52.547Z,4.85
2017-11-27T08:05:33.074Z,4.86
2017-11-27T08:06:13.613Z,4.91
2017-11-27T08:06:54.141Z,4.92
2017-11-27T08:07:34.660Z,4.91
2017-11-27T08:08:15.163Z,4.89
2017-11-27T08:08:55.669Z,4.92
2017-11-27T08:09:36.188Z,4.89
2017-11-27T08:10:16.726Z,4.88
2017-11-27T08:10:57.243Z,4.88
2017-11-27T08:11:37.773Z,4.88
2017-11-27T08:12:18.289Z,4.8
2017-11-27T08:12:58.795Z,4.89
2017-11-27T08:13:39.341Z,4.91
2017-11-27T08:14:19.851Z,4.82
2017-11-27T08:15:00.392Z,4.8
2017-11-27T08:15:40.902Z,4.77
2017-11-27T08:16:21.444Z,4.75
2017-11-27T08:17:01.962Z,4.77
2017-11-27T08:17:42.497Z,4.85
2017-11-27T08:18:23.017Z,4.85
2017-11-27T08:19:03.547Z,4.8
2017-11-27T08:19:44.075Z,4.78
2017-11-27T08:20:24.601Z,4.8
2017-11-27T08:21:05.162Z,4.8
2017-11-27T08:21:45.685Z,4.84
2017-11-27T08:22:26.249Z,4.84
2017-11-27T08:23:06.778Z,4.75
2017-11-27T08:23:47.314Z,4.86
2017-11-27T08:24:27.830Z,4.86
2017-11-27T08:25:08.344Z,4.73
2017-11-27T08:25:48.880Z,4.78
2017-11-27T08:26:29.414Z,4.82
2017-11-27T08:27:09.939Z,4.88
2017-11-27T08:27:50.454Z,4.85
2017-11-27T08:28:30.997Z,4.8
2017-11-27T08:29:11.522Z,4.88
2017-11-27T08:29:52.037Z,4.85
2017-11-27T08:30:32.559Z,4.91
2017-11-27T08:31:13.083Z,4.89
2017-11-27T08:31:53.609Z,4.92
2017-11-27T08:32:34.121Z,4.89
2017-11-27T08:33:14.653Z,4.94
2017-11-27T08:33:55.180Z,4.96
2017-11-27T08:34:35.694Z,4.86
2017-11-27T08:35:16.217Z,4.88
2017-11-27T08:35:56.737Z,4.89
2017-11-27T08:36:37.281Z,4.86
2017-11-27T08:37:17.811Z,4.99
2017-11-27T08:37:58.339Z,4.94
2017-11-27T08:38:38.865Z,4.92
2017-11-27T08:39:19.365Z,4.91
2017-11-27T08:39:59.889Z,4.91
2017-11-27T08:40:40.428Z,4.88
2017-11-27T08:41:20.943Z,4.96
2017-11-27T08:42:01.483Z,4.96
2017-11-27T08:42:42.007Z,4.91
2017-11-27T08:43:22.525Z,4.92
2017-11-27T08:44:03.044Z,4.91
2017-11-27T08:44:43.558Z,4.91
2017-11-27T08:45:24.071Z,4.94
2017-11-27T08:46:04.605Z,5.02
2017-11-27T08:46:45.112Z,5
2017-11-27T08:47:25.635Z,4.91
2017-11-27T08:48:06.158Z,4.94
2017-11-27T08:48:46.766Z,5
2017-11-27T08:49:27.295Z,4.92
2017-11-27T08:50:07.823Z,4.97
2017-11-27T08:50:48.358Z,4.99
2017-11-27T08:51:28.888Z,4.97
2017-11-27T08:52:09.405Z,5.02
2017-11-27T08:52:49.937Z,4.97
2017-11-27T08:53:30.472Z,4.89
2017-11-27T08:54:10.999Z,4.99
2017-11-27T08:54:51.546Z,4.97
2017-11-27T08:55:32.049Z,4.97
2017-11-27T08:56:12.581Z,4.97
2017-11-27T08:56:53.104Z,4.94
2017-11-27T08:57:33.639Z,5.02
2017-11-27T08:58:14.162Z,4.89
2017-11-27T08:58:54.678Z,5
2017-11-27T08:59:35.218Z,4.96
2017-11-27T09:00:15.742Z,4.99
2017-11-27T09:00:56.275Z,4.92
2017-11-27T09:01:36.789Z,4.91
2017-11-27T09:02:17.315Z,4.97